createdAt,value
2022-09-06T00:00:58.868Z,14.8
2022-09-06T00:02:08.218Z,14.9
2022-09-06T00:03:12.624Z,14.9
2022-09-06T00:04:17.305Z,15
2022-09-06T00:05:22.095Z,15
2022-09-06T00:06:26.866Z,14.9
2022-09-06T00:07:31.669Z,14.9
2022-09-06T00:08:36.598Z,14.9
2022-09-06T00:09:41.061Z,15
2022-09-06T00:10:45.401Z,15
2022-09-06T00:11:50.876Z,15
2022-09-06T00:12:55.567Z,15
2022-09-06T00:14:08.129Z,15
2022-09-06T00:15:12.658Z,14.9
2022-09-06T00:16:16.963Z,14.9
2022-09-06T00:17:21.413Z,14.9
2022-09-06T00:18:25.761Z,14.9
2022-09-06T00:19:30.285Z,14.9
2022-09-06T00:20:35.337Z,14.9
2022-09-06T00:21:43.905Z,14.9
2022-09-06T00:22:48.349Z,14.9
2022-09-06T00:23:53.098Z,14.9
2022-09-06T00:24:57.564Z,14.9
2022-09-06T00:26:01.945Z,14.9
2022-09-06T00:27:07.085Z,14.9
2022-09-06T00:28:11.833Z,14.9
2022-09-06T00:29:21.166Z,14.8
2022-09-06T00:30:25.621Z,14.9
2022-09-06T00:31:30.144Z,14.8
2022-09-06T00:32:34.440Z,14.8
2022-09-06T00:33:38.977Z,14.8
2022-09-06T00:34:44.097Z,14.8
2022-09-06T00:35:48.521Z,14.8
2022-09-06T00:36:53.089Z,14.7
2022-09-06T00:37:57.785Z,14.7
2022-09-06T00:39:02.937Z,14.7
2022-09-06T00:40:07.531Z,14.7
2022-09-06T00:41:12.066Z,14.7
2022-09-06T00:42:21.509Z,14.7
2022-09-06T00:43:26.269Z,14.7
2022-09-06T00:44:30.709Z,14.6
2022-09-06T00:45:35.206Z,14.6
2022-09-06T00:46:39.823Z,14.6
2022-09-06T00:47:44.676Z,14.6
2022-09-06T00:48:49.591Z,14.6
2022-09-06T00:49:58.266Z,14.6
2022-09-06T00:51:03.431Z,14.6
2022-09-06T00:52:08.243Z,14.6
2022-09-06T00:53:12.963Z,14.6
2022-09-06T00:54:19.786Z,14.6
2022-09-06T00:55:24.652Z,14.6
2022-09-06T00:56:30.330Z,14.6
2022-09-06T00:57:35.811Z,14.5
2022-09-06T00:58:40.027Z,14.5
2022-09-06T00:59:44.538Z,14.5
2022-09-06T01:00:49.198Z,14.5
2022-09-06T01:01:53.654Z,14.5
2022-09-06T01:02:58.074Z,14.4
2022-09-06T01:04:02.870Z,14.3
2022-09-06T01:05:07.351Z,14.3
2022-09-06T01:06:12.078Z,14.4
2022-09-06T01:07:21.670Z,14.4
2022-09-06T01:08:31.171Z,14.4
2022-09-06T01:09:41.224Z,14.3
2022-09-06T01:10:51.175Z,14.3
2022-09-06T01:12:06.483Z,14.3
2022-09-06T01:13:19.087Z,14.3
2022-09-06T01:14:29.185Z,14.3
2022-09-06T01:15:36.374Z,14.3
2022-09-06T01:16:48.494Z,14.3
2022-09-06T01:17:57.802Z,14.3
2022-09-06T01:19:10.118Z,14.3
2022-09-06T01:20:26.595Z,14.3
2022-09-06T01:21:41.239Z,14.3
2022-09-06T01:22:48.638Z,14.3
2022-09-06T01:24:00.857Z,14.3
2022-09-06T01:25:05.177Z,14.3
2022-09-06T01:26:14.895Z,14.4
2022-09-06T01:27:24.632Z,14.3
2022-09-06T01:28:39.183Z,14.3
2022-09-06T01:29:46.231Z,14.3
2022-09-06T01:30:58.157Z,14.3
2022-09-06T01:32:02.411Z,14.2
2022-09-06T01:33:13.302Z,14.2
2022-09-06T01:34:17.959Z,14.2
2022-09-06T01:35:25.266Z,14.2
2022-09-06T01:36:49.754Z,14.2
2022-09-06T01:37:52.834Z,14.1
2022-09-06T01:38:57.327Z,14.1
2022-09-06T01:40:01.975Z,14.1
2022-09-06T01:41:06.634Z,14.1
2022-09-06T01:42:11.155Z,14.1
2022-09-06T01:43:18.482Z,14.1
2022-09-06T01:44:23.118Z,14.1
2022-09-06T01:45:27.562Z,14.1
2022-09-06T01:46:42.222Z,14.1
2022-09-06T01:47:47.089Z,14.1
2022-09-06T01:48:55.002Z,14.1
2022-09-06T01:50:09.961Z,14.1
2022-09-06T01:51:26.911Z,14
2022-09-06T01:52:36.990Z,14
2022-09-06T01:53:51.674Z,14
2022-09-06T01:55:01.486Z,14
2022-09-06T01:56:06.468Z,14
2022-09-06T01:57:21.391Z,14
2022-09-06T01:58:36.138Z,14
2022-09-06T01:59:50.706Z,14
2022-09-06T02:01:00.107Z,14
2022-09-06T02:02:10.126Z,14
2022-09-06T02:03:14.776Z,14
2022-09-06T02:04:24.499Z,13.9
2022-09-06T02:05:34.034Z,14
2022-09-06T02:06:38.402Z,14
2022-09-06T02:07:51.974Z,14
2022-09-06T02:08:56.374Z,14
2022-09-06T02:10:08.918Z,14
2022-09-06T02:11:22.870Z,14
2022-09-06T02:12:27.309Z,14
2022-09-06T02:13:33.230Z,14
2022-09-06T02:14:45.362Z,14
2022-09-06T02:17:01.637Z,13.9
2022-09-06T02:18:06.014Z,13.9
2022-09-06T02:19:11.150Z,13.9
2022-09-06T02:20:15.975Z,13.9
2022-09-06T02:21:20.546Z,13.9
2022-09-06T02:22:25.386Z,13.9
2022-09-06T02:23:29.837Z,13.9
2022-09-06T02:24:35.974Z,13.9
2022-09-06T02:25:41.159Z,13.9
2022-09-06T02:26:52.502Z,13.9
2022-09-06T02:27:56.966Z,13.9
2022-09-06T02:29:01.528Z,13.8
2022-09-06T02:30:06.414Z,13.8
2022-09-06T02:31:12.025Z,13.8
2022-09-06T02:32:19.634Z,13.8
2022-09-06T02:33:24.111Z,13.8
2022-09-06T02:34:29.466Z,13.8
2022-09-06T02:35:47.044Z,13.8
2022-09-06T02:36:58.914Z,13.7
2022-09-06T02:38:08.521Z,13.7
2022-09-06T02:39:13.438Z,13.7
2022-09-06T02:40:18.009Z,13.7
2022-09-06T02:41:23.907Z,13.7
2022-09-06T02:42:29.039Z,13.7
2022-09-06T02:43:34.455Z,13.7
2022-09-06T02:44:39.090Z,13.7
2022-09-06T02:45:44.283Z,13.7
2022-09-06T02:46:49.874Z,13.7
2022-09-06T02:47:55.506Z,13.6
2022-09-06T02:49:00.077Z,13.6
2022-09-06T02:50:04.621Z,13.6
2022-09-06T02:51:09.110Z,13.6
2022-09-06T02:52:13.618Z,13.6
2022-09-06T02:53:18.070Z,13.5
2022-09-06T02:54:23.078Z,13.5
2022-09-06T02:55:27.524Z,13.5
2022-09-06T02:56:32.351Z,13.5
2022-09-06T02:57:37.058Z,13.4
2022-09-06T02:58:45.462Z,13.4
2022-09-06T02:59:50.594Z,13.4
2022-09-06T03:00:55.541Z,13.4
2022-09-06T03:02:00.340Z,13.4
2022-09-06T03:03:04.846Z,13.3
2022-09-06T03:04:09.446Z,13.3
2022-09-06T03:05:14.006Z,13.3
2022-09-06T03:06:18.734Z,13.2
2022-09-06T03:07:23.583Z,13.2
2022-09-06T03:08:28.292Z,13.2
2022-09-06T03:09:35.426Z,13.2
2022-09-06T03:10:39.913Z,13.2
2022-09-06T03:11:53.830Z,13.2
2022-09-06T03:12:58.534Z,13.3
2022-09-06T03:14:03.218Z,13.2
2022-09-06T03:15:07.899Z,13.2
2022-09-06T03:16:12.967Z,13.2
2022-09-06T03:17:22.585Z,13.3
2022-09-06T03:18:27.433Z,13.2
2022-09-06T03:19:34.486Z,13.2
2022-09-06T03:20:38.964Z,13.2
2022-09-06T03:21:43.598Z,13.2
2022-09-06T03:22:48.162Z,13.2
2022-09-06T03:23:52.778Z,13.2
2022-09-06T03:24:57.126Z,13.1
2022-09-06T03:26:01.458Z,13.2
2022-09-06T03:27:06.094Z,13.2
2022-09-06T03:28:10.430Z,13.2
2022-09-06T03:29:14.730Z,13.2
2022-09-06T03:30:19.375Z,13.2
2022-09-06T03:31:23.869Z,13.2
2022-09-06T03:32:28.350Z,13.2
2022-09-06T03:33:37.139Z,13.2
2022-09-06T03:34:41.666Z,13.2
2022-09-06T03:35:46.118Z,13.2
2022-09-06T03:36:56.074Z,13.2
2022-09-06T03:38:00.517Z,13.2
2022-09-06T03:39:05.377Z,13.2
2022-09-06T03:40:10.363Z,13.2
2022-09-06T03:41:15.053Z,13.2
2022-09-06T03:42:19.451Z,13.2
2022-09-06T03:43:23.970Z,13.2
2022-09-06T03:44:28.394Z,13.2
2022-09-06T03:45:33.732Z,13.2
2022-09-06T03:46:38.230Z,13.2
2022-09-06T03:47:43.070Z,13.2
2022-09-06T03:48:50.681Z,13.2
2022-09-06T03:49:56.241Z,13.2
2022-09-06T03:51:00.857Z,13.2
2022-09-06T03:52:05.322Z,13.2
2022-09-06T03:53:09.893Z,13.1
2022-09-06T03:54:14.690Z,13.2
2022-09-06T03:55:21.033Z,13.2
2022-09-06T03:56:25.783Z,13.2
2022-09-06T03:57:30.176Z,13.1
2022-09-06T03:58:35.174Z,13.1
2022-09-06T03:59:39.650Z,13.1
2022-09-06T04:00:43.974Z,13.1
2022-09-06T04:01:48.642Z,13.1
2022-09-06T04:02:53.266Z,13.1
2022-09-06T04:03:59.050Z,13.1
2022-09-06T04:05:03.657Z,13.1
2022-09-06T04:06:08.253Z,13.1
2022-09-06T04:07:12.594Z,13.1
2022-09-06T04:08:16.760Z,13.2
2022-09-06T04:09:21.174Z,13.1
2022-09-06T04:10:25.522Z,13.2
2022-09-06T04:11:29.862Z,13.2
2022-09-06T04:12:34.158Z,13.2
2022-09-06T04:13:38.662Z,13.1
2022-09-06T04:14:44.782Z,13.1
2022-09-06T04:15:49.570Z,13.1
2022-09-06T04:16:54.178Z,13.1
2022-09-06T04:17:59.015Z,13.1
2022-09-06T04:19:03.394Z,13
2022-09-06T04:20:07.735Z,13
2022-09-06T04:21:11.954Z,13.1
2022-09-06T04:22:16.358Z,13
2022-09-06T04:23:20.857Z,13.1
2022-09-06T04:25:28.869Z,13
2022-09-06T04:26:33.249Z,13
2022-09-06T04:27:37.877Z,13
2022-09-06T04:28:42.849Z,13
2022-09-06T04:29:47.522Z,13
2022-09-06T04:30:53.333Z,12.9
2022-09-06T04:32:00.818Z,12.9
2022-09-06T04:33:05.522Z,12.9
2022-09-06T04:34:10.145Z,13
2022-09-06T04:35:15.021Z,12.9
2022-09-06T04:36:20.062Z,12.9
2022-09-06T04:37:24.818Z,13
2022-09-06T04:38:29.850Z,12.9
2022-09-06T04:39:39.363Z,12.9
2022-09-06T04:40:44.341Z,12.9
2022-09-06T04:41:49.289Z,13
2022-09-06T04:42:54.241Z,12.9
2022-09-06T04:43:58.970Z,12.9
2022-09-06T04:45:04.513Z,12.9
2022-09-06T04:46:09.637Z,12.9
2022-09-06T04:47:17.011Z,12.9
2022-09-06T04:48:21.999Z,12.9
2022-09-06T04:49:26.550Z,12.9
2022-09-06T04:50:31.022Z,12.9
2022-09-06T04:51:38.306Z,12.9
2022-09-06T04:52:42.626Z,12.9
2022-09-06T04:53:49.030Z,12.9
2022-09-06T04:55:57.724Z,12.9
2022-09-06T04:57:05.105Z,12.9
2022-09-06T04:58:09.739Z,12.9
2022-09-06T04:59:14.170Z,12.9
2022-09-06T05:00:18.605Z,12.9
2022-09-06T05:01:22.978Z,12.9
2022-09-06T05:02:27.795Z,12.9
2022-09-06T05:03:32.393Z,12.9
2022-09-06T05:04:36.951Z,12.9
2022-09-06T05:05:41.669Z,12.9
2022-09-06T05:06:46.793Z,12.9
2022-09-06T05:07:51.637Z,12.8
2022-09-06T05:08:56.193Z,12.9
2022-09-06T05:10:00.567Z,13
2022-09-06T05:11:05.299Z,12.9
2022-09-06T05:12:09.844Z,12.9
2022-09-06T05:13:16.785Z,13
2022-09-06T05:14:21.217Z,13
2022-09-06T05:15:25.541Z,13.1
2022-09-06T05:16:30.328Z,13
2022-09-06T05:17:34.613Z,13
2022-09-06T05:18:39.118Z,13
2022-09-06T05:19:43.746Z,13
2022-09-06T05:20:49.582Z,13
2022-09-06T05:21:55.579Z,13
2022-09-06T05:23:00.113Z,13.1
2022-09-06T05:24:04.690Z,13.1
2022-09-06T05:25:09.289Z,13.1
2022-09-06T05:26:13.872Z,13.1
2022-09-06T05:27:19.730Z,13.1
2022-09-06T05:28:24.247Z,13
2022-09-06T05:29:30.553Z,13.1
2022-09-06T05:30:32.914Z,13.1
2022-09-06T05:31:37.617Z,13.2
2022-09-06T05:32:42.450Z,13.2
2022-09-06T05:33:47.197Z,13.3
2022-09-06T05:34:52.075Z,13.2
2022-09-06T05:35:56.946Z,13.3
2022-09-06T05:37:01.501Z,13.4
2022-09-06T05:38:06.122Z,13.4
2022-09-06T05:39:10.653Z,13.4
2022-09-06T05:40:19.826Z,13.4
2022-09-06T05:41:24.287Z,13.4
2022-09-06T05:42:28.897Z,13.5
2022-09-06T05:43:33.171Z,13.6
2022-09-06T05:44:37.777Z,13.6
2022-09-06T05:45:42.292Z,13.6
2022-09-06T05:46:47.761Z,13.6
2022-09-06T05:47:52.218Z,13.7
2022-09-06T05:48:59.970Z,13.6
2022-09-06T05:50:04.375Z,13.7
2022-09-06T05:51:09.457Z,13.7
2022-09-06T05:52:14.154Z,13.7
2022-09-06T05:53:18.774Z,13.7
2022-09-06T05:54:23.157Z,13.8
2022-09-06T05:55:27.546Z,13.8
2022-09-06T05:56:31.785Z,13.8
2022-09-06T05:57:36.414Z,13.8
2022-09-06T05:58:41.357Z,13.9
2022-09-06T05:59:46.114Z,14
2022-09-06T06:00:50.552Z,13.9
2022-09-06T06:01:55.045Z,14
2022-09-06T06:03:02.193Z,13.9
2022-09-06T06:04:06.633Z,13.9
2022-09-06T06:05:11.318Z,13.9
2022-09-06T06:06:16.102Z,14
2022-09-06T06:07:23.293Z,14.1
2022-09-06T06:08:27.708Z,14.1
2022-09-06T06:09:32.017Z,14.2
2022-09-06T06:10:38.562Z,14.2
2022-09-06T06:11:40.634Z,14.2
2022-09-06T06:12:44.958Z,14.1
2022-09-06T06:13:49.342Z,14.1
2022-09-06T06:14:53.888Z,14.2
2022-09-06T06:15:58.238Z,14.2
2022-09-06T06:17:03.142Z,14.2
2022-09-06T06:18:07.581Z,14.3
2022-09-06T06:19:11.837Z,14.3
2022-09-06T06:20:16.274Z,14.3
2022-09-06T06:21:20.641Z,14.3
2022-09-06T06:22:27.333Z,14.3
2022-09-06T06:23:31.820Z,14.3
2022-09-06T06:24:37.374Z,14.4
2022-09-06T06:25:42.479Z,14.5
2022-09-06T06:26:47.125Z,14.5
2022-09-06T06:27:51.554Z,14.5
2022-09-06T06:28:55.905Z,14.5
2022-09-06T06:30:00.401Z,14.5
2022-09-06T06:31:04.946Z,14.5
2022-09-06T06:32:09.496Z,14.6
2022-09-06T06:33:13.898Z,14.6
2022-09-06T06:34:23.238Z,14.8
2022-09-06T06:35:28.589Z,14.7
2022-09-06T06:36:32.859Z,14.7
2022-09-06T06:37:37.114Z,14.8
2022-09-06T06:39:45.444Z,14.9
2022-09-06T06:40:50.257Z,14.9
2022-09-06T06:41:55.153Z,15
2022-09-06T06:43:18.617Z,15
2022-09-06T06:44:23.285Z,14.8
2022-09-06T06:45:28.326Z,14.9
2022-09-06T06:46:34.321Z,15
2022-09-06T06:47:38.645Z,15
2022-09-06T06:48:42.950Z,15
2022-09-06T06:49:47.342Z,15
2022-09-06T06:51:55.417Z,15.1
2022-09-06T06:52:59.638Z,15.1
2022-09-06T06:54:04.377Z,15.1
2022-09-06T06:55:08.658Z,15.1
2022-09-06T06:56:12.909Z,15.1
2022-09-06T06:57:21.349Z,15
2022-09-06T06:58:26.095Z,15.1
2022-09-06T06:59:31.153Z,15
2022-09-06T07:00:35.862Z,15
2022-09-06T07:01:41.775Z,15
2022-09-06T07:02:45.869Z,15
2022-09-06T07:03:50.668Z,15
2022-09-06T07:04:54.934Z,15.1
2022-09-06T07:06:15.118Z,15.2
2022-09-06T07:08:08.521Z,15.2
2022-09-06T07:09:12.845Z,15.3
2022-09-06T07:11:23.032Z,15.4
2022-09-06T07:12:26.109Z,15.4
2022-09-06T07:13:30.382Z,15.5
2022-09-06T07:14:34.669Z,15.5
2022-09-06T07:15:39.209Z,15.6
2022-09-06T07:16:44.200Z,15.6
2022-09-06T07:18:52.893Z,15.7
2022-09-06T07:20:12.897Z,15.7
2022-09-06T07:22:09.440Z,15.7
2022-09-06T07:24:16.237Z,15.8
2022-09-06T07:25:21.703Z,15.7
2022-09-06T07:26:26.374Z,15.8
2022-09-06T07:28:35.768Z,15.8
2022-09-06T07:29:40.174Z,15.7
2022-09-06T07:30:45.218Z,15.5
2022-09-06T07:32:54.341Z,15.5
2022-09-06T07:34:01.538Z,15.6
2022-09-06T07:35:06.149Z,15.6
2022-09-06T07:36:10.713Z,15.7
2022-09-06T07:37:15.790Z,15.8
2022-09-06T07:38:20.381Z,15.8
2022-09-06T07:39:27.005Z,15.7
2022-09-06T07:40:32.121Z,15.8
2022-09-06T07:41:36.597Z,15.8
2022-09-06T07:42:41.446Z,15.9
2022-09-06T07:43:46.329Z,15.9
2022-09-06T07:44:50.677Z,15.9
2022-09-06T07:45:55.399Z,15.9
2022-09-06T07:48:04.281Z,16
2022-09-06T07:49:09.157Z,16
2022-09-06T07:51:18.174Z,16.1
2022-09-06T07:53:30.984Z,16.1
2022-09-06T07:54:31.731Z,16.2
2022-09-06T07:55:36.018Z,16.2
2022-09-06T07:56:40.478Z,16.2
2022-09-06T07:57:44.975Z,16.3
2022-09-06T07:58:49.394Z,16.2
2022-09-06T07:59:54.053Z,16.3
2022-09-06T08:00:58.610Z,16.4
2022-09-06T08:02:13.492Z,16.4
2022-09-06T08:03:17.766Z,16.3
2022-09-06T08:04:22.053Z,16.4
2022-09-06T08:06:30.321Z,16.5
2022-09-06T08:07:38.540Z,16.5
2022-09-06T08:08:58.697Z,16.6
2022-09-06T08:09:47.357Z,16.5
2022-09-06T08:10:52.233Z,16.6
2022-09-06T08:11:57.066Z,16.6
2022-09-06T08:13:01.465Z,16.6
2022-09-06T08:14:06.357Z,16.6
2022-09-06T08:15:11.125Z,16.5
2022-09-06T08:16:15.665Z,16.5
2022-09-06T08:17:20.254Z,16.5
2022-09-06T08:18:24.728Z,16.6
2022-09-06T08:19:29.230Z,16.7
2022-09-06T08:20:33.805Z,16.7
2022-09-06T08:21:38.521Z,16.8
2022-09-06T08:22:42.941Z,16.8
2022-09-06T08:23:47.850Z,16.8
2022-09-06T08:24:52.146Z,16.8
2022-09-06T08:25:56.661Z,16.7
2022-09-06T08:27:01.205Z,16.7
2022-09-06T08:28:05.702Z,16.8
2022-09-06T08:29:10.257Z,16.7
2022-09-06T08:30:16.209Z,16.8
2022-09-06T08:31:20.538Z,16.8
2022-09-06T08:32:25.525Z,16.9
2022-09-06T08:33:30.057Z,16.8
2022-09-06T08:34:34.454Z,16.8
2022-09-06T08:35:39.109Z,16.9
2022-09-06T08:36:43.465Z,16.9
2022-09-06T08:37:47.758Z,16.9
2022-09-06T08:38:53.149Z,16.9
2022-09-06T08:39:58.763Z,16.9
2022-09-06T08:41:04.343Z,16.9
2022-09-06T08:42:13.853Z,16.8
2022-09-06T08:43:18.125Z,16.8
2022-09-06T08:45:27.589Z,17
2022-09-06T08:46:32.318Z,16.9
2022-09-06T08:47:39.917Z,16.9
2022-09-06T08:48:44.269Z,16.9
2022-09-06T08:49:48.929Z,16.9
2022-09-06T08:51:01.543Z,17
2022-09-06T08:52:08.487Z,17
2022-09-06T08:53:18.427Z,16.8
2022-09-06T08:54:22.759Z,16.7
2022-09-06T08:55:32.823Z,16.8
2022-09-06T08:56:37.246Z,17
2022-09-06T08:57:49.361Z,17
2022-09-06T08:59:02.194Z,17
2022-09-06T09:00:06.658Z,17
2022-09-06T09:01:11.176Z,16.9
2022-09-06T09:02:18.327Z,17
2022-09-06T09:03:22.701Z,17.1
2022-09-06T09:04:37.077Z,17.1
2022-09-06T09:05:46.473Z,17.2
2022-09-06T09:06:50.761Z,17.2
2022-09-06T09:07:55.082Z,17.3
2022-09-06T09:09:04.697Z,17.4
2022-09-06T09:10:09.819Z,17.4
2022-09-06T09:11:16.689Z,17.5
2022-09-06T09:12:21.332Z,17.7
2022-09-06T09:13:25.709Z,17.7
2022-09-06T09:14:33.057Z,17.9
2022-09-06T09:15:40.309Z,17.9
2022-09-06T09:16:42.000Z,18
2022-09-06T09:17:46.333Z,18.1
2022-09-06T09:18:50.605Z,18.2
2022-09-06T09:19:57.985Z,18.2
2022-09-06T09:21:02.859Z,18.3
2022-09-06T09:22:07.414Z,18.4
2022-09-06T09:23:12.757Z,18.5
2022-09-06T09:24:17.265Z,18.3
2022-09-06T09:25:21.848Z,18.3
2022-09-06T09:26:26.250Z,18.4
2022-09-06T09:27:30.753Z,18.5
2022-09-06T09:28:35.493Z,18.5
2022-09-06T09:29:41.043Z,18.5
2022-09-06T09:30:54.698Z,18.7
2022-09-06T09:31:59.652Z,18.8
2022-09-06T09:33:04.108Z,18.9
2022-09-06T09:34:15.005Z,19
2022-09-06T09:35:29.569Z,19
2022-09-06T09:36:34.288Z,19
2022-09-06T09:37:46.187Z,19.2
2022-09-06T09:38:43.698Z,19.1
2022-09-06T09:39:48.459Z,19.3
2022-09-06T09:40:57.011Z,19.2
2022-09-06T09:42:04.059Z,19.1
2022-09-06T09:43:08.507Z,19.3
2022-09-06T09:44:17.249Z,19.3
2022-09-06T09:45:21.692Z,19.4
2022-09-06T09:46:26.286Z,19.4
2022-09-06T09:47:36.639Z,19.4
2022-09-06T09:48:41.699Z,19.6
2022-09-06T09:49:56.479Z,19.6
2022-09-06T09:51:05.363Z,19.7
2022-09-06T09:52:20.243Z,19.8
2022-09-06T09:53:24.831Z,20
2022-09-06T09:54:29.707Z,19.8
2022-09-06T09:55:34.499Z,20.1
2022-09-06T09:56:38.783Z,20.1
2022-09-06T09:57:48.419Z,20.2
2022-09-06T09:58:53.880Z,20.2
2022-09-06T09:59:58.527Z,20.3
2022-09-06T10:01:03.930Z,20.4
2022-09-06T10:02:11.587Z,20.4
2022-09-06T10:03:24.074Z,20.3
2022-09-06T10:04:45.028Z,20.4
2022-09-06T10:05:34.656Z,20.5
2022-09-06T10:07:43.444Z,20.5
2022-09-06T10:08:50.555Z,20.1
2022-09-06T10:09:55.086Z,20.2
2022-09-06T10:11:02.810Z,20.4
2022-09-06T10:12:07.233Z,20.5
2022-09-06T10:13:19.619Z,20.7
2022-09-06T10:14:24.620Z,20.7
2022-09-06T10:15:34.668Z,20.7
2022-09-06T10:16:39.275Z,20.8
2022-09-06T10:17:46.635Z,20.9
2022-09-06T10:18:51.031Z,21
2022-09-06T10:19:55.914Z,21.1
2022-09-06T10:21:01.695Z,21.2
2022-09-06T10:22:05.986Z,21.3
2022-09-06T10:24:34.147Z,20.8
2022-09-06T10:25:42.991Z,21.1
2022-09-06T10:26:46.038Z,21.2
2022-09-06T10:28:10.262Z,21.3
2022-09-06T10:29:10.234Z,21.4
2022-09-06T10:30:14.739Z,21.5
2022-09-06T10:32:32.798Z,21.8
2022-09-06T10:33:40.667Z,21.7
2022-09-06T10:34:50.167Z,21.6
2022-09-06T10:36:02.785Z,21.5
2022-09-06T10:37:07.435Z,21.6
2022-09-06T10:38:22.208Z,21.8
2022-09-06T10:39:29.294Z,21.7
2022-09-06T10:40:45.982Z,21.8
2022-09-06T10:41:59.443Z,21.7
2022-09-06T10:43:06.703Z,21.6
2022-09-06T10:44:11.218Z,21.6
2022-09-06T10:45:21.659Z,21.5
2022-09-06T10:46:29.643Z,21.7
2022-09-06T10:47:34.027Z,21.8
2022-09-06T10:48:38.624Z,21.7
2022-09-06T10:49:43.495Z,21.7
2022-09-06T10:50:50.610Z,21.9
2022-09-06T10:51:54.963Z,22
2022-09-06T10:52:59.758Z,21.8
2022-09-06T10:54:14.919Z,22
2022-09-06T10:55:22.722Z,21.8
2022-09-06T10:56:27.551Z,21.8
2022-09-06T10:59:51.490Z,22.1
2022-09-06T11:00:58.735Z,21.9
2022-09-06T11:02:03.545Z,21.8
2022-09-06T11:04:18.007Z,22
2022-09-06T11:06:34.298Z,21.7
2022-09-06T11:07:39.416Z,21.7
2022-09-06T11:09:55.635Z,21.9
2022-09-06T11:11:05.399Z,21.6
2022-09-06T11:12:17.935Z,21.7
2022-09-06T11:13:30.423Z,21.9
2022-09-06T11:14:34.943Z,21.6
2022-09-06T11:15:39.200Z,21.6
2022-09-06T11:16:51.282Z,21.8
2022-09-06T11:17:55.627Z,21.8
2022-09-06T11:19:08.014Z,21.7
2022-09-06T11:20:12.670Z,21.8
2022-09-06T11:21:20.055Z,21.8
2022-09-06T11:22:34.998Z,21.9
2022-09-06T11:23:40.942Z,21.7
2022-09-06T11:24:55.450Z,21.6
2022-09-06T11:26:10.212Z,21.8
2022-09-06T11:27:24.622Z,21.6
2022-09-06T11:28:33.347Z,21.4
2022-09-06T11:29:41.306Z,21.5
2022-09-06T11:30:45.739Z,21.6
2022-09-06T11:32:21.613Z,21.7
2022-09-06T11:32:56.274Z,21.8
2022-09-06T11:34:10.814Z,21.5
2022-09-06T11:35:20.723Z,21.5
2022-09-06T11:36:28.008Z,21.7
2022-09-06T11:37:35.330Z,21.8
2022-09-06T11:38:40.337Z,21.9
2022-09-06T11:40:49.682Z,22
2022-09-06T11:41:59.131Z,22.1
2022-09-06T11:43:04.458Z,22.1
2022-09-06T11:44:09.558Z,22.1
2022-09-06T11:45:14.047Z,22
2022-09-06T11:46:20.994Z,22.1
2022-09-06T11:47:34.731Z,22.2
2022-09-06T11:48:39.502Z,22.2
2022-09-06T11:49:49.246Z,22.3
2022-09-06T11:50:54.196Z,22.1
2022-09-06T11:52:05.086Z,21.8
2022-09-06T11:53:21.654Z,21.9
2022-09-06T11:54:29.693Z,22
2022-09-06T11:55:39.774Z,22.1
2022-09-06T11:56:47.034Z,21.9
2022-09-06T11:57:51.418Z,22.1
2022-09-06T11:58:55.870Z,22.1
2022-09-06T12:00:00.160Z,22
2022-09-06T12:01:04.737Z,22
2022-09-06T12:02:14.867Z,22.1
2022-09-06T12:04:36.474Z,22.2
2022-09-06T12:05:51.098Z,22.2
2022-09-06T12:07:05.751Z,22.2
2022-09-06T12:08:10.413Z,22.2
2022-09-06T12:09:15.102Z,22.3
2022-09-06T12:10:30.087Z,22.4
2022-09-06T12:11:40.195Z,22.5
2022-09-06T12:12:45.286Z,22.6
2022-09-06T12:13:49.771Z,22.6
2022-09-06T12:14:59.890Z,22.5
2022-09-06T12:16:14.555Z,22.5
2022-09-06T12:17:18.982Z,22.6
2022-09-06T12:18:23.635Z,22.6
2022-09-06T12:19:35.913Z,22.6
2022-09-06T12:20:50.706Z,22.6
2022-09-06T12:21:55.923Z,22.6
2022-09-06T12:23:00.410Z,22.5
2022-09-06T12:24:05.154Z,22.5
2022-09-06T12:25:14.494Z,22.5
2022-09-06T12:26:28.954Z,22.5
2022-09-06T12:27:43.674Z,22.4
2022-09-06T12:28:55.058Z,22.5
2022-09-06T12:29:59.977Z,22.5
2022-09-06T12:31:05.174Z,22.5
2022-09-06T12:32:20.206Z,22.4
2022-09-06T12:33:25.265Z,22.4
2022-09-06T12:34:32.389Z,22.5
2022-09-06T12:36:41.418Z,22.7
2022-09-06T12:37:54.234Z,22.8
2022-09-06T12:38:58.983Z,22.5
2022-09-06T12:40:08.904Z,22.5
2022-09-06T12:41:13.662Z,22.5
2022-09-06T12:42:18.287Z,22.6
2022-09-06T12:43:22.909Z,22.6
2022-09-06T12:44:27.594Z,22.7
2022-09-06T12:45:31.866Z,22.5
2022-09-06T12:46:36.069Z,22.4
2022-09-06T12:47:40.428Z,22.4
2022-09-06T12:48:45.954Z,22.3
2022-09-06T12:50:00.550Z,22.3
2022-09-06T12:51:11.571Z,22.5
2022-09-06T12:52:20.866Z,22.5
2022-09-06T12:53:26.174Z,22.6
2022-09-06T12:54:30.522Z,22.6
2022-09-06T12:55:36.659Z,22.5
2022-09-06T12:56:41.234Z,22.6
2022-09-06T12:57:45.718Z,22.7
2022-09-06T12:58:49.971Z,22.8
2022-09-06T12:59:54.476Z,22.7
2022-09-06T13:01:00.102Z,22.5
2022-09-06T13:02:04.561Z,22.5
2022-09-06T13:03:09.623Z,22.6
2022-09-06T13:04:19.122Z,22.8
2022-09-06T13:05:28.673Z,22.6
2022-09-06T13:06:33.431Z,22.6
2022-09-06T13:07:40.502Z,22.6
2022-09-06T13:08:45.576Z,22.6
2022-09-06T13:09:49.887Z,22.5
2022-09-06T13:10:54.134Z,22.4
2022-09-06T13:11:58.254Z,22.3
2022-09-06T13:13:06.198Z,22.5
2022-09-06T13:14:14.162Z,22.5
2022-09-06T13:15:18.036Z,22.6
2022-09-06T13:16:30.218Z,22.5
2022-09-06T13:17:34.460Z,22.3
2022-09-06T13:18:39.601Z,22.5
2022-09-06T13:19:43.790Z,22.5
2022-09-06T13:20:48.154Z,22.6
2022-09-06T13:21:59.174Z,22.7
2022-09-06T13:23:03.547Z,22.6
2022-09-06T13:24:11.167Z,22.3
2022-09-06T13:25:20.772Z,22.4
2022-09-06T13:26:23.503Z,22.3
2022-09-06T13:27:33.078Z,22.4
2022-09-06T13:28:37.598Z,22.5
2022-09-06T13:29:41.971Z,22.4
2022-09-06T13:30:49.711Z,22.4
2022-09-06T13:31:51.349Z,22.3
2022-09-06T13:32:57.270Z,22.3
2022-09-06T13:34:02.002Z,22.3
2022-09-06T13:35:06.942Z,22.4
2022-09-06T13:36:11.687Z,22.5
2022-09-06T13:37:16.330Z,22.3
2022-09-06T13:38:21.210Z,22.1
2022-09-06T13:39:35.748Z,22
2022-09-06T13:41:06.667Z,22.1
2022-09-06T13:41:47.422Z,22.2
2022-09-06T13:42:56.978Z,22.4
2022-09-06T13:44:01.531Z,22.2
2022-09-06T13:45:16.205Z,22.3
2022-09-06T13:46:29.108Z,22
2022-09-06T13:47:33.607Z,22.1
2022-09-06T13:48:38.555Z,22.3
2022-09-06T13:49:44.242Z,22.1
2022-09-06T13:50:49.381Z,22.3
2022-09-06T13:51:53.814Z,22.2
2022-09-06T13:52:59.258Z,22.3
2022-09-06T13:54:03.489Z,22.3
2022-09-06T13:55:08.335Z,22.4
2022-09-06T13:56:15.331Z,22.4
2022-09-06T13:57:24.274Z,22.4
2022-09-06T13:58:25.015Z,22.5
2022-09-06T13:59:30.877Z,22.5
2022-09-06T14:00:35.918Z,22.3
2022-09-06T14:01:41.509Z,22.4
2022-09-06T14:02:50.204Z,22.2
2022-09-06T14:03:54.598Z,22.4
2022-09-06T14:04:59.166Z,22.4
2022-09-06T14:06:06.389Z,22.2
2022-09-06T14:07:14.988Z,22.2
2022-09-06T14:08:20.086Z,22.3
2022-09-06T14:09:24.585Z,22.2
2022-09-06T14:10:29.086Z,22.2
2022-09-06T14:11:33.750Z,22.2
2022-09-06T14:12:42.439Z,22.4
2022-09-06T14:13:52.846Z,22.2
2022-09-06T14:15:01.834Z,22.4
2022-09-06T14:16:06.568Z,22.2
2022-09-06T14:17:10.914Z,22.2
2022-09-06T14:18:15.046Z,22.1
2022-09-06T14:19:19.357Z,22.2
2022-09-06T14:20:23.942Z,22.3
2022-09-06T14:21:28.598Z,22.3
2022-09-06T14:22:33.762Z,22.3
2022-09-06T14:23:38.471Z,22.1
2022-09-06T14:24:43.190Z,22
2022-09-06T14:25:47.694Z,21.9
2022-09-06T14:27:02.218Z,21.9
2022-09-06T14:28:07.323Z,21.9
2022-09-06T14:29:11.769Z,22
2022-09-06T14:30:16.059Z,22.1
2022-09-06T14:31:20.475Z,21.9
2022-09-06T14:32:28.858Z,22
2022-09-06T14:33:33.818Z,22.1
2022-09-06T14:34:39.475Z,22.1
2022-09-06T14:35:43.686Z,21.9
2022-09-06T14:36:47.943Z,21.9
2022-09-06T14:37:52.843Z,22
2022-09-06T14:38:58.010Z,22.1
2022-09-06T14:40:02.540Z,22.2
2022-09-06T14:41:26.057Z,22.1
2022-09-06T14:42:30.370Z,22
2022-09-06T14:43:34.526Z,21.9
2022-09-06T14:44:45.008Z,22
2022-09-06T14:45:55.996Z,22
2022-09-06T14:47:06.043Z,22.1
2022-09-06T14:49:14.138Z,22.1
2022-09-06T14:50:19.078Z,22
2022-09-06T14:51:24.073Z,22
2022-09-06T14:52:28.345Z,22
2022-09-06T14:53:40.518Z,21.9
2022-09-06T14:54:40.994Z,21.9
2022-09-06T14:55:46.053Z,21.9
2022-09-06T14:56:52.355Z,22
2022-09-06T14:58:09.889Z,22.1
2022-09-06T14:59:18.338Z,22
2022-09-06T15:00:24.878Z,22
2022-09-06T15:01:34.330Z,22
2022-09-06T15:02:35.193Z,22
2022-09-06T15:03:47.199Z,21.9
2022-09-06T15:04:53.085Z,21.9
2022-09-06T15:05:58.521Z,21.9
2022-09-06T15:07:03.077Z,21.8
2022-09-06T15:08:10.452Z,21.8
2022-09-06T15:09:15.014Z,21.9
2022-09-06T15:10:19.806Z,21.9
2022-09-06T15:11:24.078Z,21.7
2022-09-06T15:12:40.173Z,21.7
2022-09-06T15:13:44.650Z,21.6
2022-09-06T15:14:48.953Z,21.6
2022-09-06T15:15:54.856Z,21.7
2022-09-06T15:17:01.670Z,21.8
2022-09-06T15:18:07.826Z,21.8
2022-09-06T15:19:12.287Z,21.8
2022-09-06T15:20:16.695Z,21.6
2022-09-06T15:21:21.094Z,21.6
2022-09-06T15:22:25.397Z,21.8